Time;durP1;ratioP1;P1;durP2;ratioP2;P2;SDS_P1;SDS_P2;PMS_P1;PMS_P2;Temp;Humidity;BMP_temperature;BMP_pressure;BME280_temperature;BME280_humidity;BME280_pressure;Samples;Min_cycle;Max_cycle;Signal;HPM_P1;HPM_P2
2023/07/21 00:01:14;;;;;;;;;;;;;;;6.81;100.00;99254.59;4927610;29;19923;-85
2023/07/21 00:03:40;;;;;;;;;;;;;;;6.85;100.00;99256.19;4928248;29;19915;-85
2023/07/21 00:06:06;;;;;;;;;;;;;;;6.82;100.00;99250.19;4928319;29;19923;-85
2023/07/21 00:08:32;;;;;;;;;;;;;;;6.83;100.00;99241.34;4928283;29;19919;-85
2023/07/21 00:10:58;;;;;;;;;;;;;;;6.83;100.00;99241.34;4928200;29;20453;-85
2023/07/21 00:13:23;;;;;;;;;;;;;;;6.82;100.00;99239.66;4928672;29;19923;-85
2023/07/21 00:15:49;;;;;;;;;;;;;;;6.84;100.00;99243.94;4927241;29;19926;-86
2023/07/21 00:18:15;;;;;;;;;;;;;;;6.83;100.00;99238.72;4917457;29;19927;-85
2023/07/21 00:20:40;;;;;;;;;;;;;;;6.85;100.00;99236.91;4926329;29;20006;-85
2023/07/21 00:23:05;;;;;;;;;;;;;;;6.87;100.00;99240.34;4928303;29;19972;-86
2023/07/21 00:25:30;;;;;;;;;;;;;;;6.90;100.00;99237.59;4926731;29;19923;-86
2023/07/21 05:16:18;;;;;;;;;;;;;;;7.18;100.00;99160.16;5266052;23;19980;-87
2023/07/21 05:18:44;;;;;;;;;;;;;;;7.21;100.00;99163.53;5014156;28;19925;-89
2023/07/21 05:21:09;;;;;;;;;;;;;;;7.20;100.00;99156.53;5014248;28;20388;-88
2023/07/21 05:23:34;;;;;;;;;;;;;;;7.19;100.00;99156.59;5013125;28;19921;-88
2023/07/21 05:26:00;;;;;;;;;;;;;;;7.19;100.00;99154.81;5014013;28;19921;-88
2023/07/21 05:28:26;;;;;;;;;;;;;;;7.22;100.00;99148.59;5013253;28;19971;-90
2023/07/21 05:30:51;;;;;;;;;;;;;;;7.19;100.00;99153.97;5012699;28;19918;-89
2023/07/21 05:33:25;;;;;;;;;;;;;;;7.22;100.00;99151.22;5014144;28;19968;-88
2023/07/21 05:35:51;;;;;;;;;;;;;;;7.23;100.00;99164.34;4982126;28;19953;-90
2023/07/21 05:38:16;;;;;;;;;;;;;;;7.19;100.00;99160.09;4983075;28;20491;-91
2023/07/21 05:40:41;;;;;;;;;;;;;;;7.26;100.00;99160.72;4965932;28;20300;-91
2023/07/21 05:43:07;;;;;;;;;;;;;;;7.23;100.00;99160.84;4966744;28;19969;-91
2023/07/21 05:45:32;;;;;;;;;;;;;;;7.27;100.00;99165.94;4981186;28;20013;-90
2023/07/21 05:47:58;;;;;;;;;;;;;;;7.27;100.00;99162.44;4964641;28;20332;-88
2023/07/21 05:50:23;;;;;;;;;;;;;;;7.27;100.00;99163.31;4982681;28;19957;-84
2023/07/21 05:52:49;;;;;;;;;;;;;;;7.30;100.00;99170.22;4965359;28;20322;-86
2023/07/21 05:55:14;;;;;;;;;;;;;;;7.34;100.00;99163.03;4965792;28;19917;-91
2023/07/21 05:57:39;;;;;;;;;;;;;;;7.30;100.00;99167.59;4965953;28;19922;-92
2023/07/21 06:00:05;;;;;;;;;;;;;;;7.27;100.00;99167.69;4964315;28;20389;-90
2023/07/21 06:02:31;;;;;;;;;;;;;;;7.31;100.00;99179.84;4981691;28;19922;-91
2023/07/21 06:04:57;;;;;;;;;;;;;;;7.26;100.00;99176.53;4966275;28;19922;-92
2023/07/21 06:07:23;;;;;;;;;;;;;;;7.26;100.00;99176.53;4987174;28;20376;-89
2023/07/21 06:09:49;;;;;;;;;;;;;;;7.28;100.00;99180.81;5012488;28;19924;-91
2023/07/21 06:12:14;;;;;;;;;;;;;;;7.30;100.00;99172.84;5013441;28;20341;-90
2023/07/21 06:14:39;;;;;;;;;;;;;;;7.27;100.00;99179.13;5012027;28;19925;-90
2023/07/21 06:17:04;;;;;;;;;;;;;;;7.32;100.00;99181.53;5013191;28;20396;-91
2023/07/21 06:19:31;;;;;;;;;;;;;;;7.33;100.00;99178.00;5013335;28;19921;-92
2023/07/21 06:21:57;;;;;;;;;;;;;;;7.33;100.00;99172.72;5013070;28;19917;-91
2023/07/21 06:24:22;;;;;;;;;;;;;;;7.41;100.00;99175.91;5013136;28;20012;-92
2023/07/21 06:26:47;;;;;;;;;;;;;;;7.38;100.00;99176.03;5012903;28;20427;-90
2023/07/21 06:29:12;;;;;;;;;;;;;;;7.39;100.00;99185.69;5012954;28;19929;-88
2023/07/21 06:31:37;;;;;;;;;;;;;;;7.43;100.00;99181.97;5011654;28;20012;-86
2023/07/21 06:34:03;;;;;;;;;;;;;;;7.50;100.00;99172.06;5012371;28;19921;-89
2023/07/21 06:36:28;;;;;;;;;;;;;;;7.46;100.00;99168.69;5012567;28;19918;-88
2023/07/21 06:38:53;;;;;;;;;;;;;;;7.47;100.00;99174.84;5012428;28;19924;-89
2023/07/21 06:41:19;;;;;;;;;;;;;;;7.46;100.00;99179.22;5012752;28;19922;-90
2023/07/21 06:43:45;;;;;;;;;;;;;;;7.46;100.00;99181.00;4994962;28;19972;-90
2023/07/21 06:46:10;;;;;;;;;;;;;;;7.43;100.00;99186.41;5011324;28;20356;-89
2023/07/21 06:48:35;;;;;;;;;;;;;;;7.42;100.00;99198.72;4994959;28;20032;-89
2023/07/21 06:51:01;;;;;;;;;;;;;;;7.48;100.00;99199.41;5012524;28;19968;-90
2023/07/21 06:53:27;;;;;;;;;;;;;;;7.41;100.00;99194.38;5012577;28;20373;-88
2023/07/21 07:44:42;;;;;;;;;;;;;;;7.53;100.00;99195.69;5076103;23;20032;-86
2023/07/21 07:47:08;;;;;;;;;;;;;;;7.53;100.00;99189.53;4964788;28;20017;-86
2023/07/21 07:49:35;;;;;;;;;;;;;;;7.53;100.00;99184.25;4982283;28;20308;-89
2023/07/21 07:52:00;;;;;;;;;;;;;;;7.56;100.00;99181.50;4965295;28;19918;-87
2023/07/21 07:54:25;;;;;;;;;;;;;;;7.51;100.00;99184.31;4964808;28;19921;-88
2023/07/21 07:56:51;;;;;;;;;;;;;;;7.54;100.00;99188.63;4964986;28;19929;-88
2023/07/21 07:59:16;;;;;;;;;;;;;;;7.53;100.00;99194.81;4962504;28;20410;-90
2023/07/21 08:01:41;;;;;;;;;;;;;;;7.52;100.00;99198.38;4965217;28;19922;-88
2023/07/21 08:04:06;;;;;;;;;;;;;;;7.55;100.00;99187.72;4982800;28;19941;-87
2023/07/21 08:06:32;;;;;;;;;;;;;;;7.53;100.00;99187.78;4979448;28;20013;-83
2023/07/21 08:08:57;;;;;;;;;;;;;;;7.52;100.00;99188.69;4964784;28;19918;-90
2023/07/21 08:11:23;;;;;;;;;;;;;;;7.54;100.00;99192.09;4965836;28;19922;-87
2023/07/21 08:13:48;;;;;;;;;;;;;;;7.53;100.00;99190.41;4967844;28;19948;-89
2023/07/21 08:16:15;;;;;;;;;;;;;;;7.54;100.00;99197.38;4968592;28;19918;-89
2023/07/21 08:18:40;;;;;;;;;;;;;;;7.56;100.00;99202.59;4968315;28;19928;-86
2023/07/21 08:21:24;;;;;;;;;;;;;;;7.58;100.00;99198.13;4969203;28;20002;-89
2023/07/21 08:23:50;;;;;;;;;;;;;;;7.60;100.00;99205.03;4967920;28;20011;-88
2023/07/21 08:26:16;;;;;;;;;;;;;;;7.56;100.00;99200.84;4968568;28;20342;-86
2023/07/21 08:28:41;;;;;;;;;;;;;;;7.54;100.00;99194.75;4984709;28;19936;-85
2023/07/21 08:31:08;;;;;;;;;;;;;;;7.55;100.00;99188.56;4968297;28;19973;-88
2023/07/21 08:33:34;;;;;;;;;;;;;;;7.56;100.00;99189.41;4985579;28;19921;-87
2023/07/21 08:35:59;;;;;;;;;;;;;;;7.58;100.00;99198.13;4968719;28;19922;-86
2023/07/21 08:38:24;;;;;;;;;;;;;;;7.57;100.00;99199.03;4968145;28;19922;-87
2023/07/21 08:40:53;;;;;;;;;;;;;;;7.59;100.00;99199.84;4967424;28;19925;-85
2023/07/21 08:43:19;;;;;;;;;;;;;;;7.56;100.00;99206.09;4984711;28;20352;-86
2023/07/21 08:45:46;;;;;;;;;;;;;;;7.59;100.00;99202.47;4985646;28;19958;-85
2023/07/21 08:48:16;;;;;;;;;;;;;;;7.58;100.00;99200.78;4982255;28;19925;-86
2023/07/21 08:50:42;;;;;;;;;;;;;;;7.57;100.00;99197.25;4984542;28;19914;-85
2023/07/21 08:53:07;;;;;;;;;;;;;;;7.58;100.00;99192.88;4985280;28;19965;-85
2023/07/21 08:55:33;;;;;;;;;;;;;;;7.57;100.00;99199.03;4967094;28;20009;-86
2023/07/21 08:57:59;;;;;;;;;;;;;;;7.60;100.00;99201.56;4982682;28;20369;-87
2023/07/21 09:00:25;;;;;;;;;;;;;;;7.57;100.00;99215.72;4984922;28;19957;-84
2023/07/21 09:02:57;;;;;;;;;;;;;;;7.59;100.00;99213.03;4985758;28;19918;-86
2023/07/21 09:05:22;;;;;;;;;;;;;;;7.63;100.00;99209.34;4984150;28;19925;-85
2023/07/21 09:07:51;;;;;;;;;;;;;;;7.60;100.00;99214.75;4985059;28;20004;-83
2023/07/21 09:10:36;;;;;;;;;;;;;;;7.61;100.00;99222.59;4985289;28;19922;-84
2023/07/21 09:13:02;;;;;;;;;;;;;;;7.63;100.00;99217.25;4982137;28;20289;-87
2023/07/21 09:15:27;;;;;;;;;;;;;;;7.63;100.00;99225.16;4984629;28;19922;-87
2023/07/21 09:17:53;;;;;;;;;;;;;;;7.64;100.00;99226.88;4985316;28;19922;-84
2023/07/21 09:20:18;;;;;;;;;;;;;;;7.63;100.00;99233.09;4984790;28;19962;-87
2023/07/21 09:22:49;;;;;;;;;;;;;;;7.62;100.00;99228.72;4984426;28;20383;-87
2023/07/21 09:25:21;;;;;;;;;;;;;;;7.63;100.00;99233.09;4984284;28;19926;-86
2023/07/21 09:27:55;;;;;;;;;;;;;;;7.66;100.00;99235.59;4965954;28;20044;-86
2023/07/21 09:30:21;;;;;;;;;;;;;;;7.65;100.00;99241.78;4984609;28;20004;-86
2023/07/21 09:32:47;;;;;;;;;;;;;;;7.64;100.00;99240.94;4967426;28;20332;-85
2023/07/21 09:35:12;;;;;;;;;;;;;;;7.63;100.00;99246.28;4984530;28;19953;-85
2023/07/21 09:37:38;;;;;;;;;;;;;;;7.62;100.00;99236.63;4984416;28;19918;-86
2023/07/21 09:40:10;;;;;;;;;;;;;;;7.66;100.00;99243.50;4984927;28;19918;-88
2023/07/21 09:42:36;;;;;;;;;;;;;;;7.65;100.00;99247.06;4982329;28;19949;-85
2023/07/21 09:45:02;;;;;;;;;;;;;;;7.66;100.00;99248.78;4984351;28;20305;-85
2023/07/21 09:47:27;;;;;;;;;;;;;;;7.69;100.00;99255.69;4984478;28;19922;-88
2023/07/21 09:49:54;;;;;;;;;;;;;;;7.70;100.00;99257.44;4984304;28;20419;-87
2023/07/21 09:52:20;;;;;;;;;;;;;;;7.70;100.00;99260.91;4984135;28;19922;-85
2023/07/21 09:54:48;;;;;;;;;;;;;;;7.77;100.00;99261.53;4984499;28;19918;-86
2023/07/21 09:57:18;;;;;;;;;;;;;;;7.77;100.00;99257.13;5419391;23;19926;-87
2023/07/21 09:59:45;;;;;;;;;;;;;;;7.72;100.00;99263.50;4994403;28;19925;-84
2023/07/21 10:02:11;;;;;;;;;;;;;;;7.75;100.00;99271.28;5013419;28;19921;-86
2023/07/21 10:04:37;;;;;;;;;;;;;;;7.78;100.00;99274.66;4995731;28;20138;-87
2023/07/21 10:07:03;;;;;;;;;;;;;;;7.79;100.00;99276.38;4999036;28;19958;-84
2023/07/21 10:09:30;;;;;;;;;;;;;;;7.78;100.00;99276.44;4995448;28;20269;-86
2023/07/21 10:12:07;;;;;;;;;;;;;;;7.79;100.00;99273.75;4995720;28;19940;-85
2023/07/21 10:14:33;;;;;;;;;;;;;;;7.77;100.00;99278.22;5011824;28;19924;-87
2023/07/21 10:16:59;;;;;;;;;;;;;;;7.78;100.00;99277.28;5013083;28;19921;-87
2023/07/21 10:19:27;;;;;;;;;;;;;;;7.77;100.00;99269.44;5012621;28;19917;-85
2023/07/21 10:21:56;;;;;;;;;;;;;;;7.77;100.00;99278.22;4995261;28;19980;-87
2023/07/21 10:24:28;;;;;;;;;;;;;;;7.75;100.00;99274.78;4995512;28;20351;-88
2023/07/21 10:27:01;;;;;;;;;;;;;;;7.76;100.00;99271.22;4995380;28;19918;-84
2023/07/21 10:29:26;;;;;;;;;;;;;;;7.79;100.00;99279.03;5011593;28;19968;-88
2023/07/21 10:31:52;;;;;;;;;;;;;;;7.75;100.00;99282.69;4995213;28;19925;-87
2023/07/21 10:34:18;;;;;;;;;;;;;;;7.80;100.00;99293.06;5010609;28;19932;-85
2023/07/21 10:36:45;;;;;;;;;;;;;;;7.84;100.00;99289.38;5012839;28;19992;-86
2023/07/21 10:39:16;;;;;;;;;;;;;;;7.84;100.00;99293.81;5012567;28;20381;-89
2023/07/21 10:41:42;;;;;;;;;;;;;;;7.86;100.00;99298.09;5012577;28;20328;-85
2023/07/21 10:44:11;;;;;;;;;;;;;;;7.85;100.00;99298.16;4993802;28;20324;-86
2023/07/21 10:46:37;;;;;;;;;;;;;;;7.88;100.00;99305.94;5012518;28;19917;-84
2023/07/21 10:49:02;;;;;;;;;;;;;;;7.86;100.00;99298.09;4994766;28;19924;-83
2023/07/21 10:51:28;;;;;;;;;;;;;;;7.85;100.00;99301.66;5012494;28;19922;-83
2023/07/21 10:53:56;;;;;;;;;;;;;;;7.85;100.00;99313.97;5012429;28;19921;-86
2023/07/21 10:56:35;;;;;;;;;;;;;;;7.82;100.00;99313.19;5012496;28;19921;-88
2023/07/21 10:59:00;;;;;;;;;;;;;;;7.83;100.00;99311.41;5000104;28;20032;-86
2023/07/21 11:01:26;;;;;;;;;;;;;;;7.81;100.00;99306.19;5012450;28;20424;-87
2023/07/21 11:03:52;;;;;;;;;;;;;;;7.82;100.00;99302.63;5012173;28;20345;-85
2023/07/21 11:06:23;;;;;;;;;;;;;;;7.85;100.00;99308.69;4994329;28;20009;-87
2023/07/21 11:08:49;;;;;;;;;;;;;;;7.90;100.00;99309.41;5012160;28;19949;-87
2023/07/21 11:11:15;;;;;;;;;;;;;;;7.89;100.00;99308.53;5012211;28;19914;-85
2023/07/21 11:13:40;;;;;;;;;;;;;;;7.90;100.00;99325.22;5010904;28;19917;-88
2023/07/21 11:16:05;;;;;;;;;;;;;;;7.90;100.00;99326.09;5012071;28;19963;-85
2023/07/21 11:18:31;;;;;;;;;;;;;;;7.91;100.00;99316.38;5012264;28;20012;-86
2023/07/21 11:20:56;;;;;;;;;;;;;;;7.92;100.00;99311.03;5011886;28;19960;-87
2023/07/21 11:23:27;;;;;;;;;;;;;;;7.95;100.00;99324.13;4995743;28;19918;-86
2023/07/21 11:26:04;;;;;;;;;;;;;;;7.96;100.00;99319.69;5010853;28;19983;-88
2023/07/21 11:28:30;;;;;;;;;;;;;;;7.95;100.00;99323.25;5010426;28;20008;-86
2023/07/21 11:30:55;;;;;;;;;;;;;;;7.93;100.00;99325.09;4994136;28;20008;-87
2023/07/21 11:33:21;;;;;;;;;;;;;;;7.94;100.00;99327.66;5011989;28;19953;-87
2023/07/21 11:35:51;;;;;;;;;;;;;;;7.93;100.00;99318.03;5011908;28;20407;-91
2023/07/21 11:38:17;;;;;;;;;;;;;;;7.92;100.00;99326.03;5002046;28;19972;-87
2023/07/21 11:40:45;;;;;;;;;;;;;;;7.94;100.00;99318.91;5011845;28;19921;-87
2023/07/21 11:43:12;;;;;;;;;;;;;;;7.89;100.00;99324.34;5010835;28;20032;-87
2023/07/21 11:45:41;;;;;;;;;;;;;;;7.92;100.00;99328.66;5011995;28;19921;-87
2023/07/21 11:48:14;;;;;;;;;;;;;;;7.92;100.00;99324.22;5014997;28;20012;-85
2023/07/21 11:50:57;;;;;;;;;;;;;;;7.92;100.00;99333.94;5006684;28;20295;-84
2023/07/21 11:53:24;;;;;;;;;;;;;;;7.95;100.00;99331.19;5013862;28;20360;-90
2023/07/21 11:55:50;;;;;;;;;;;;;;;7.96;100.00;99330.25;5015569;28;19921;-89
2023/07/21 11:58:15;;;;;;;;;;;;;;;7.99;100.00;99325.72;5014256;28;20387;-87
2023/07/21 12:00:42;;;;;;;;;;;;;;;7.97;100.00;99324.91;4997725;28;19932;-85
2023/07/21 12:03:09;;;;;;;;;;;;;;;7.97;100.00;99326.69;5015710;28;19922;-86
2023/07/21 12:05:36;;;;;;;;;;;;;;;8.02;100.00;99327.38;5014101;28;19917;-87
2023/07/21 12:08:06;;;;;;;;;;;;;;;8.00;100.00;99322.16;5015292;28;19964;-88
2023/07/21 12:10:31;;;;;;;;;;;;;;;7.99;100.00;99324.84;5015209;28;19922;-87
2023/07/21 12:12:59;;;;;;;;;;;;;;;7.98;100.00;99321.34;5014027;28;20311;-90
2023/07/21 12:15:24;;;;;;;;;;;;;;;7.96;100.00;99327.59;5015437;28;19925;-82
2023/07/21 12:17:52;;;;;;;;;;;;;;;7.96;100.00;99330.25;4997511;28;20280;-85
2023/07/21 12:20:17;;;;;;;;;;;;;;;7.96;100.00;99327.59;5015445;28;19932;-86
2023/07/21 12:22:43;;;;;;;;;;;;;;;7.95;100.00;99320.63;5015282;28;20343;-87
2023/07/21 12:25:09;;;;;;;;;;;;;;;7.91;100.00;99319.00;4997355;28;19922;-87
2023/07/21 12:27:34;;;;;;;;;;;;;;;7.92;100.00;99318.09;5013539;28;19917;-85
2023/07/21 12:30:00;;;;;;;;;;;;;;;7.90;100.00;99301.50;5014927;28;19924;-85
2023/07/21 12:32:26;;;;;;;;;;;;;;;7.89;100.00;99297.97;5015066;28;20024;-87
2023/07/21 12:34:52;;;;;;;;;;;;;;;7.87;100.00;99305.09;5014896;28;20382;-86
2023/07/21 12:37:18;;;;;;;;;;;;;;;7.90;100.00;99306.78;4997316;28;19922;-84
2023/07/21 12:39:46;;;;;;;;;;;;;;;7.89;100.00;99297.97;5014572;28;19924;-85
2023/07/21 12:42:11;;;;;;;;;;;;;;;7.96;100.00;99303.84;5015119;28;20342;-85
2023/07/21 12:44:37;;;;;;;;;;;;;;;7.90;100.00;99298.84;5013533;28;19953;-86
2023/07/21 12:47:02;;;;;;;;;;;;;;;7.91;100.00;99295.28;5014648;28;19927;-86
2023/07/21 12:49:27;;;;;;;;;;;;;;;7.94;100.00;99311.84;4980956;28;19921;-86
2023/07/21 12:51:52;;;;;;;;;;;;;;;7.94;100.00;99297.78;5014264;28;19983;-89
2023/07/21 12:54:18;;;;;;;;;;;;;;;7.93;100.00;99290.78;4995894;28;19917;-86
2023/07/21 12:56:43;;;;;;;;;;;;;;;7.94;100.00;99300.44;4996080;28;19922;-86
2023/07/21 12:59:09;;;;;;;;;;;;;;;7.92;100.00;99291.72;5012836;28;19953;-84
2023/07/21 13:01:34;;;;;;;;;;;;;;;7.93;100.00;99290.78;5014480;28;19929;-85
2023/07/21 13:04:00;;;;;;;;;;;;;;;7.94;100.00;99295.16;5014354;28;20004;-85
2023/07/21 13:06:25;;;;;;;;;;;;;;;7.92;100.00;99291.72;5014093;28;19918;-86
2023/07/21 13:08:50;;;;;;;;;;;;;;;7.94;100.00;99289.88;4996566;28;20791;-86
2023/07/21 13:11:16;;;;;;;;;;;;;;;7.93;100.00;99281.13;5014301;28;19925;-85
2023/07/21 13:13:41;;;;;;;;;;;;;;;7.89;100.00;99284.78;5013014;28;19921;-85
2023/07/21 13:16:07;;;;;;;;;;;;;;;7.92;100.00;99282.03;5014095;28;19925;-84
2023/07/21 13:18:32;;;;;;;;;;;;;;;7.92;100.00;99291.72;4997856;28;19929;-87
2023/07/21 13:20:57;;;;;;;;;;;;;;;7.96;100.00;99293.31;5013485;28;19918;-86
2023/07/21 13:23:22;;;;;;;;;;;;;;;7.90;100.00;99286.50;4996375;28;20028;-86
2023/07/21 13:25:48;;;;;;;;;;;;;;;7.91;100.00;99284.72;4996439;28;19918;-87
2023/07/21 13:28:13;;;;;;;;;;;;;;;7.96;100.00;99280.13;5012737;28;20270;-86
2023/07/21 13:30:39;;;;;;;;;;;;;;;7.98;100.00;99280.94;5013859;28;19940;-85
2023/07/21 13:33:04;;;;;;;;;;;;;;;7.93;100.00;99272.31;5013788;28;20284;-87
2023/07/21 13:35:29;;;;;;;;;;;;;;;7.96;100.00;99277.47;4996284;28;19963;-87
2023/07/21 13:37:54;;;;;;;;;;;;;;;7.93;100.00;99274.97;4996019;28;19924;-87
2023/07/21 13:40:19;;;;;;;;;;;;;;;12.23;100.00;99277.97;5013560;28;19925;-80
2023/07/21 13:42:45;;;;;;;;;;;;;;;8.96;100.00;99275.09;5012569;28;20336;-86
2023/07/21 13:45:10;;;;;;;;;;;;;;;7.26;100.00;99282.81;4996154;28;19918;-88
2023/07/21 13:47:39;;;;;;;;;;;;;;;6.90;100.00;99264.78;4996215;28;20463;-89
2023/07/21 13:50:05;;;;;;;;;;;;;;;6.50;100.00;99265.34;5002904;28;20376;-88
2023/07/21 13:52:31;;;;;;;;;;;;;;;6.28;100.00;99263.44;5003902;28;20016;-88
2023/07/21 13:54:56;;;;;;;;;;;;;;;6.05;100.00;99268.59;4995808;28;20012;-88
2023/07/21 13:57:21;;;;;;;;;;;;;;;5.87;100.00;99270.00;4995364;28;20328;-87
2023/07/21 13:59:47;;;;;;;;;;;;;;;5.86;100.00;99266.53;5012549;28;19929;-86
2023/07/21 14:02:12;;;;;;;;;;;;;;;5.74;100.00;99266.91;5013351;28;20328;-86
2023/07/21 14:04:38;;;;;;;;;;;;;;;5.63;100.00;99278.63;5013241;28;19926;-87
2023/07/21 14:07:05;;;;;;;;;;;;;;;5.61;100.00;99264.66;5011442;28;20341;-90
2023/07/21 14:09:31;;;;;;;;;;;;;;;5.52;100.00;99269.34;5002818;28;19917;-91
2023/07/21 14:11:56;;;;;;;;;;;;;;;5.67;100.00;99273.28;5013153;28;19929;-88
2023/07/21 14:14:21;;;;;;;;;;;;;;;5.66;100.00;99276.81;5012099;28;19924;-87
2023/07/21 14:16:46;;;;;;;;;;;;;;;5.50;100.00;99271.16;5013076;28;20336;-88
2023/07/21 14:19:12;;;;;;;;;;;;;;;5.50;100.00;99260.66;5012571;28;19918;-89
2023/07/21 14:21:38;;;;;;;;;;;;;;;5.49;100.00;99272.94;5013239;28;20399;-86
2023/07/21 14:24:04;;;;;;;;;;;;;;;5.39;100.00;99274.97;4995152;28;19964;-86
2023/07/21 14:26:29;;;;;;;;;;;;;;;5.33;100.00;99263.78;4995883;28;20000;-89
2023/07/21 14:28:55;;;;;;;;;;;;;;;5.31;100.00;99270.84;5009885;28;20361;-88
2023/07/21 14:31:20;;;;;;;;;;;;;;;5.25;100.00;99264.88;4995190;28;20432;-89
2023/07/21 14:33:46;;;;;;;;;;;;;;;5.26;100.00;99273.59;5012961;28;19917;-88
2023/07/21 14:36:11;;;;;;;;;;;;;;;5.26;100.00;99263.09;5012749;28;19918;-88
2023/07/21 14:38:36;;;;;;;;;;;;;;;5.27;100.00;99265.69;4995017;28;20164;-89
2023/07/21 14:41:02;;;;;;;;;;;;;;;5.17;100.00;99250.22;5012488;28;19940;-88
2023/07/21 14:43:27;;;;;;;;;;;;;;;5.40;100.00;99254.81;5011552;28;19922;-86
2023/07/21 14:45:53;;;;;;;;;;;;;;;5.16;100.00;99252.00;5012643;28;20001;-90
2023/07/21 14:48:19;;;;;;;;;;;;;;;5.13;100.00;99252.09;5012581;28;19925;-86
2023/07/21 14:50:44;;;;;;;;;;;;;;;5.13;100.00;99254.72;5012016;28;19917;-88
2023/07/21 14:53:09;;;;;;;;;;;;;;;5.24;100.00;99251.78;5012352;28;20398;-88
2023/07/21 14:55:34;;;;;;;;;;;;;;;5.05;100.00;99252.31;4994933;28;19922;-86
2023/07/21 14:58:00;;;;;;;;;;;;;;;5.00;100.00;99253.38;5010953;28;19921;-85
2023/07/21 15:00:26;;;;;;;;;;;;;;;5.12;100.00;99244.25;5012481;28;19917;-86
2023/07/21 15:02:51;;;;;;;;;;;;;;;5.04;100.00;99242.72;5012346;28;20434;-88
2023/07/21 15:05:17;;;;;;;;;;;;;;;5.22;100.00;99246.56;4971484;28;20127;-87
2023/07/21 15:07:43;;;;;;;;;;;;;;;5.90;100.00;99249.72;5007644;28;19925;-87
2023/07/21 15:10:09;;;;;;;;;;;;;;;5.63;100.00;99254.97;5011203;28;19917;-88
2023/07/21 15:12:34;;;;;;;;;;;;;;;6.44;100.00;99247.13;5009374;28;20399;-85
2023/07/21 15:14:59;;;;;;;;;;;;;;;5.68;100.00;99256.59;5006289;28;20360;-86
2023/07/21 15:17:25;;;;;;;;;;;;;;;5.39;100.00;99250.44;5010342;28;19992;-85
2023/07/21 15:19:50;;;;;;;;;;;;;;;5.32;100.00;99244.53;5006114;28;19925;-88
2023/07/21 15:22:15;;;;;;;;;;;;;;;5.24;100.00;99247.38;5010457;28;19928;-86
2023/07/21 15:24:41;;;;;;;;;;;;;;;5.26;100.00;99245.59;4998180;28;20020;-87
2023/07/21 15:27:06;;;;;;;;;;;;;;;5.26;100.00;99250.84;5001367;28;20399;-87
2023/07/21 15:29:31;;;;;;;;;;;;;;;5.25;100.00;99249.13;5007953;28;19921;-88
2023/07/21 15:31:56;;;;;;;;;;;;;;;5.19;100.00;99251.91;5009645;28;19965;-88
2023/07/21 15:34:22;;;;;;;;;;;;;;;5.20;100.00;99264.16;5012102;28;19922;-87
2023/07/21 15:36:47;;;;;;;;;;;;;;;5.23;100.00;99253.56;4990462;28;19953;-88
2023/07/21 15:39:12;;;;;;;;;;;;;;;5.19;100.00;99251.91;5008426;28;20023;-87
2023/07/21 15:41:38;;;;;;;;;;;;;;;5.20;100.00;99248.41;5009839;28;19957;-88
2023/07/21 15:44:03;;;;;;;;;;;;;;;5.20;100.00;99245.78;5009694;28;19913;-89
2023/07/21 15:46:28;;;;;;;;;;;;;;;5.17;100.00;99248.47;5011344;28;20378;-86
2023/07/21 15:48:54;;;;;;;;;;;;;;;5.18;100.00;99239.69;5002830;28;20373;-89
2023/07/21 15:51:37;;;;;;;;;;;;;;;5.42;100.00;99242.47;5005538;28;19933;-90
2023/07/21 15:54:13;;;;;;;;;;;;;;;6.09;100.00;99238.66;5008540;28;19968;-86
2023/07/21 15:57:02;;;;;;;;;;;;;;;6.40;100.00;99253.41;5010854;28;19944;-88
2023/07/21 15:59:28;;;;;;;;;;;;;;;6.59;100.00;99256.25;4987846;28;19921;-87
2023/07/21 16:01:53;;;;;;;;;;;;;;;6.76;100.00;99247.78;5008225;28;19948;-84
2023/07/21 16:04:18;;;;;;;;;;;;;;;6.85;100.00;99256.19;5009883;28;19936;-87
2023/07/21 16:06:44;;;;;;;;;;;;;;;6.91;100.00;99250.72;4994306;28;19924;-86
2023/07/21 16:09:09;;;;;;;;;;;;;;;6.94;100.00;99252.38;5011864;28;19973;-86
2023/07/21 16:11:37;;;;;;;;;;;;;;;6.97;100.00;99260.16;5011802;28;19929;-90
2023/07/21 16:14:05;;;;;;;;;;;;;;;7.05;100.00;99266.03;4992721;28;19965;-92
2023/07/21 16:16:30;;;;;;;;;;;;;;;7.09;100.00;99264.97;4994360;28;20382;-86
2023/07/21 16:18:56;;;;;;;;;;;;;;;7.18;100.00;99270.81;4992635;28;19971;-86
2023/07/21 16:21:22;;;;;;;;;;;;;;;7.26;100.00;99271.41;4991127;28;19961;-90
2023/07/21 16:23:52;;;;;;;;;;;;;;;7.24;100.00;99268.84;5010681;28;20301;-86
2023/07/21 16:26:18;;;;;;;;;;;;;;;7.30;100.00;99262.47;5009976;28;19929;-89
2023/07/21 16:28:43;;;;;;;;;;;;;;;7.28;100.00;99265.16;4992584;28;20288;-87
2023/07/21 16:31:09;;;;;;;;;;;;;;;7.38;100.00;99270.94;5006942;28;19952;-88
2023/07/21 16:33:34;;;;;;;;;;;;;;;7.37;100.00;99260.44;4993248;28;19957;-86
2023/07/21 16:35:59;;;;;;;;;;;;;;;7.43;100.00;99263.69;5001737;28;20016;-91
2023/07/21 16:38:25;;;;;;;;;;;;;;;7.45;100.00;99266.28;5008821;28;20395;-87
2023/07/21 16:40:50;;;;;;;;;;;;;;;7.46;100.00;99266.22;5000945;28;19956;-87
2023/07/21 16:43:16;;;;;;;;;;;;;;;7.49;100.00;99267.03;4992133;28;20304;-89
2023/07/21 16:45:44;;;;;;;;;;;;;;;7.50;100.00;99268.75;4997102;28;19968;-89
2023/07/21 16:48:13;;;;;;;;;;;;;;;7.54;100.00;99265.06;4987062;28;20447;-91
2023/07/21 16:50:38;;;;;;;;;;;;;;;7.56;100.00;99269.38;4980715;28;19932;-92
2023/07/21 16:53:04;;;;;;;;;;;;;;;7.60;100.00;99267.47;5004304;28;19917;-89
2023/07/21 16:55:29;;;;;;;;;;;;;;;7.59;100.00;99260.47;4993619;28;19929;-89
2023/07/21 16:57:55;;;;;;;;;;;;;;;7.68;100.00;99272.47;4985765;28;19926;-88
2023/07/21 17:00:20;;;;;;;;;;;;;;;7.62;100.00;99270.91;4974464;28;19933;-87
2023/07/21 17:02:46;;;;;;;;;;;;;;;7.61;100.00;99271.81;4968033;28;19929;-82
2023/07/21 17:05:11;;;;;;;;;;;;;;;7.64;100.00;99267.31;4966144;28;19977;-86
2023/07/21 17:07:38;;;;;;;;;;;;;;;7.70;100.00;99282.00;4965483;28;19922;-95
2023/07/21 17:10:04;;;;;;;;;;;;;;;7.71;100.00;99277.63;4967463;28;20373;-91
2023/07/21 17:12:30;;;;;;;;;;;;;;;7.72;100.00;99274.91;4964336;28;19925;-86
2023/07/21 17:14:55;;;;;;;;;;;;;;;7.75;100.00;99279.19;4961870;28;19922;-87
2023/07/21 17:17:21;;;;;;;;;;;;;;;7.72;100.00;99276.69;4959360;28;20002;-87
2023/07/21 17:19:46;;;;;;;;;;;;;;;7.79;100.00;99281.66;4976419;28;20389;-89
2023/07/21 17:22:11;;;;;;;;;;;;;;;7.73;100.00;99284.53;4964532;28;19926;-90
2023/07/21 17:24:37;;;;;;;;;;;;;;;7.81;100.00;99285.09;4964851;28;19925;-95
2023/07/21 17:27:03;;;;;;;;;;;;;;;7.87;100.00;99291.91;4964211;28;19969;-85
2023/07/21 17:29:28;;;;;;;;;;;;;;;7.89;100.00;99286.56;4965968;28;20394;-87
2023/07/21 17:31:53;;;;;;;;;;;;;;;7.90;100.00;99288.31;4966574;28;19921;-89
2023/07/21 17:34:29;;;;;;;;;;;;;;;;;;;;;
2023/07/21 17:36:54;;;;;;;;;;;;;;;7.97;100.00;99285.34;4976391;28;19943;-90
2023/07/21 17:39:20;;;;;;;;;;;;;;;7.95;100.00;99281.06;4978426;28;20468;-88
2023/07/21 17:41:46;;;;;;;;;;;;;;;7.97;100.00;99280.06;4983987;28;20025;-90
2023/07/21 17:44:11;;;;;;;;;;;;;;;7.97;100.00;99279.19;4981737;28;19926;-93
2023/07/21 17:46:38;;;;;;;;;;;;;;;8.02;100.00;99284.31;4961502;28;19922;-89
2023/07/21 17:49:03;;;;;;;;;;;;;;;8.04;100.00;99279.81;4976801;28;19925;-90
2023/07/21 17:51:28;;;;;;;;;;;;;;;8.01;100.00;99291.38;4965235;28;19981;-88
2023/07/21 17:53:55;;;;;;;;;;;;;;;8.05;100.00;99284.19;4965727;28;19922;-92
2023/07/21 17:56:27;;;;;;;;;;;;;;;8.05;100.00;99294.72;4962296;28;19938;-90
2023/07/21 17:58:52;;;;;;;;;;;;;;;8.06;100.00;99299.94;4980175;28;20392;-86
2023/07/21 18:01:27;;;;;;;;;;;;;;;8.04;100.00;99307.06;4986606;28;19988;-92
2023/07/21 18:03:53;;;;;;;;;;;;;;;8.13;100.00;99306.69;4983315;28;20004;-88
2023/07/21 18:06:21;;;;;;;;;;;;;;;8.15;100.00;99303.97;4987349;28;19928;-88
2023/07/21 18:08:47;;;;;;;;;;;;;;;8.17;100.00;99312.72;4986878;28;19932;-88
2023/07/21 18:11:12;;;;;;;;;;;;;;;8.18;100.00;99310.00;4985820;28;19921;-87
2023/07/21 18:13:37;;;;;;;;;;;;;;;8.19;100.00;99310.88;4985645;28;20625;-87
2023/07/21 18:16:03;;;;;;;;;;;;;;;8.17;100.00;99316.22;4985200;28;20016;-88
2023/07/21 18:18:29;;;;;;;;;;;;;;;8.22;100.00;99321.31;4986010;28;20353;-87
2023/07/21 18:21:04;;;;;;;;;;;;;;;8.17;100.00;99324.13;5013024;28;20041;-90